RNA189 VGHS-VNKT
Flight info
| Callsign | RNA189 |
|---|---|
| Flight time | 1h 11m |
| Altitude | 40000 |
| Route | TEGAK1A TEGAK W3 SDP DCT BGD G348 KIMTI |
| Aircraft | A332/H-SDE3GHIJ2J3J5M1RVWXY/LB2D1 |
Departure
| Time | 2026-04-22 15:57 |
|---|---|
| Airport | Hazrat Shahjalal International Airport (VGHS) |
Arrival
| Time | 2026-04-22 17:08 |
|---|---|
| Airport | Tribhuvan International Airport (VNKT) |
| Time | Latitude | Longitude | Altitude | Speed | Heading |
|---|---|---|---|---|---|
| 2026-04-22 15:43 | 23.84736 | 90.40430 | 40 ft | 0 kts | 54° |
| 2026-04-22 15:47 | 23.84735 | 90.40428 | 40 ft | 1 kts | 54° |
| 2026-04-22 15:47 | 23.84731 | 90.40423 | 39 ft | 1 kts | 54° |
| 2026-04-22 15:47 | 23.84727 | 90.40417 | 39 ft | 1 kts | 54° |
| 2026-04-22 15:47 | 23.84724 | 90.40412 | 38 ft | 1 kts | 54° |
| 2026-04-22 15:48 | 23.84720 | 90.40406 | 37 ft | 1 kts | 54° |
| 2026-04-22 15:48 | 23.84716 | 90.40400 | 36 ft | 1 kts | 53° |
| 2026-04-22 15:48 | 23.84712 | 90.40394 | 39 ft | 1 kts | 53° |
| 2026-04-22 15:48 | 23.84707 | 90.40387 | 38 ft | 1 kts | 52° |
| 2026-04-22 15:49 | 23.84702 | 90.40379 | 37 ft | 1 kts | 51° |
| 2026-04-22 15:49 | 23.84696 | 90.40372 | 36 ft | 1 kts | 31° |
| 2026-04-22 15:49 | 23.84688 | 90.40368 | 37 ft | 1 kts | 11° |
| 2026-04-22 15:49 | 23.84678 | 90.40366 | 37 ft | 1 kts | 348° |
| 2026-04-22 15:50 | 23.84670 | 90.40369 | 38 ft | 1 kts | 327° |
| 2026-04-22 15:50 | 23.84665 | 90.40373 | 38 ft | 0 kts | 327° |
| 2026-04-22 15:51 | 23.84666 | 90.40372 | 38 ft | 1 kts | 327° |
| 2026-04-22 15:51 | 23.84689 | 90.40348 | 37 ft | 5 kts | 298° |
| 2026-04-22 15:51 | 23.84680 | 90.40302 | 40 ft | 12 kts | 245° |
| 2026-04-22 15:51 | 23.84657 | 90.40193 | 40 ft | 15 kts | 308° |
| 2026-04-22 15:52 | 23.84745 | 90.40123 | 40 ft | 16 kts | 322° |
| 2026-04-22 15:52 | 23.84836 | 90.40049 | 40 ft | 17 kts | 326° |
| 2026-04-22 15:52 | 23.84938 | 90.39970 | 40 ft | 19 kts | 322° |
| 2026-04-22 15:52 | 23.85048 | 90.39883 | 40 ft | 20 kts | 324° |
| 2026-04-22 15:53 | 23.85165 | 90.39787 | 40 ft | 21 kts | 325° |
| 2026-04-22 15:53 | 23.85289 | 90.39690 | 40 ft | 22 kts | 323° |
| 2026-04-22 15:53 | 23.85420 | 90.39587 | 40 ft | 24 kts | 325° |
| 2026-04-22 15:53 | 23.85555 | 90.39477 | 40 ft | 25 kts | 326° |
| 2026-04-22 15:54 | 23.85699 | 90.39368 | 40 ft | 25 kts | 321° |
| 2026-04-22 15:54 | 23.85761 | 90.39258 | 40 ft | 14 kts | 239° |
| 2026-04-22 15:54 | 23.85700 | 90.39162 | 40 ft | 16 kts | 235° |
| 2026-04-22 15:54 | 23.85631 | 90.39058 | 40 ft | 17 kts | 228° |
| 2026-04-22 15:55 | 23.85551 | 90.38954 | 39 ft | 18 kts | 232° |
| 2026-04-22 15:55 | 23.85462 | 90.38886 | 39 ft | 13 kts | 161° |
| 2026-04-22 15:55 | 23.85440 | 90.38901 | 39 ft | 0 kts | 145° |
| 2026-04-22 15:56 | 23.85434 | 90.38906 | 39 ft | 10 kts | 145° |
| 2026-04-22 15:56 | 23.85160 | 90.39124 | 39 ft | 92 kts | 143° |
| 2026-04-22 15:56 | 23.84418 | 90.39715 | 44 ft | 171 kts | 145° |
| 2026-04-22 15:57 | 23.83335 | 90.40572 | 753 ft | 203 kts | 144° |
| 2026-04-22 15:57 | 23.82149 | 90.41507 | 1884 ft | 221 kts | 146° |
| 2026-04-22 15:57 | 23.80822 | 90.42426 | 2647 ft | 231 kts | 160° |
| 2026-04-22 15:57 | 23.79196 | 90.42505 | 3046 ft | 245 kts | 197° |
| 2026-04-22 15:58 | 23.77783 | 90.41432 | 3450 ft | 259 kts | 233° |
| 2026-04-22 15:58 | 23.77182 | 90.39569 | 4090 ft | 267 kts | 268° |
| 2026-04-22 15:58 | 23.77602 | 90.37611 | 4927 ft | 269 kts | 300° |
| 2026-04-22 15:58 | 23.78941 | 90.36245 | 5883 ft | 266 kts | 333° |
| 2026-04-22 15:59 | 23.80668 | 90.35577 | 6851 ft | 263 kts | 341° |
| 2026-04-22 15:59 | 23.82445 | 90.35059 | 7720 ft | 265 kts | 341° |
| 2026-04-22 15:59 | 23.84245 | 90.34544 | 8574 ft | 268 kts | 340° |
| 2026-04-22 15:59 | 23.86044 | 90.33977 | 9472 ft | 268 kts | 334° |
| 2026-04-22 16:00 | 23.87137 | 90.33373 | 10034 ft | 266 kts | 321° |
| 2026-04-22 16:00 | 23.88892 | 90.31358 | 10565 ft | 289 kts | 304° |
| 2026-04-22 16:00 | 23.90089 | 90.29494 | 10882 ft | 309 kts | 303° |
| 2026-04-22 16:00 | 23.90904 | 90.28193 | 11187 ft | 316 kts | 303° |
| 2026-04-22 16:01 | 23.92164 | 90.26193 | 11857 ft | 323 kts | 303° |
| 2026-04-22 16:01 | 23.93454 | 90.24153 | 12554 ft | 329 kts | 303° |
| 2026-04-22 16:01 | 23.94770 | 90.22084 | 13261 ft | 335 kts | 304° |
| 2026-04-22 16:01 | 23.96112 | 90.19979 | 13924 ft | 340 kts | 304° |
| 2026-04-22 16:02 | 23.97474 | 90.17848 | 14594 ft | 344 kts | 304° |
| 2026-04-22 16:02 | 23.98853 | 90.15691 | 15286 ft | 347 kts | 303° |
| 2026-04-22 16:02 | 24.00244 | 90.13515 | 15981 ft | 351 kts | 303° |
| 2026-04-22 16:02 | 24.01648 | 90.11318 | 16666 ft | 354 kts | 303° |
| 2026-04-22 16:03 | 24.03068 | 90.09096 | 17337 ft | 358 kts | 303° |
| 2026-04-22 16:03 | 24.04503 | 90.06848 | 18008 ft | 362 kts | 303° |
| 2026-04-22 16:03 | 24.05953 | 90.04578 | 18578 ft | 365 kts | 303° |
| 2026-04-22 16:03 | 24.07410 | 90.02294 | 19208 ft | 367 kts | 303° |
| 2026-04-22 16:04 | 24.08875 | 89.99997 | 19861 ft | 368 kts | 302° |
| 2026-04-22 16:04 | 24.10344 | 89.97692 | 20430 ft | 371 kts | 302° |
| 2026-04-22 16:04 | 24.11827 | 89.95364 | 20987 ft | 374 kts | 302° |
| 2026-04-22 16:04 | 24.13317 | 89.93024 | 21566 ft | 376 kts | 302° |
| 2026-04-22 16:05 | 24.14817 | 89.90667 | 22158 ft | 378 kts | 302° |
| 2026-04-22 16:05 | 24.16328 | 89.88292 | 22722 ft | 381 kts | 302° |
| 2026-04-22 16:05 | 24.17846 | 89.85904 | 23274 ft | 383 kts | 301° |
| 2026-04-22 16:05 | 24.19375 | 89.83499 | 23743 ft | 385 kts | 301° |
| 2026-04-22 16:06 | 24.20907 | 89.81088 | 24206 ft | 387 kts | 301° |
| 2026-04-22 16:06 | 24.22447 | 89.78662 | 24697 ft | 388 kts | 301° |
| 2026-04-22 16:06 | 24.23990 | 89.76231 | 25165 ft | 389 kts | 301° |
| 2026-04-22 16:06 | 24.25539 | 89.73790 | 25619 ft | 391 kts | 301° |
| 2026-04-22 16:07 | 24.27070 | 89.71375 | 26066 ft | 392 kts | 301° |
| 2026-04-22 16:07 | 24.28629 | 89.68916 | 26516 ft | 393 kts | 300° |
| 2026-04-22 16:07 | 24.30193 | 89.66447 | 26967 ft | 395 kts | 301° |
| 2026-04-22 16:07 | 24.31893 | 89.64057 | 27412 ft | 400 kts | 307° |
| 2026-04-22 16:08 | 24.33912 | 89.61915 | 27850 ft | 408 kts | 315° |
| 2026-04-22 16:08 | 24.36274 | 89.60129 | 28274 ft | 418 kts | 323° |
| 2026-04-22 16:08 | 24.38873 | 89.58645 | 28728 ft | 424 kts | 327° |
| 2026-04-22 16:08 | 24.41554 | 89.57270 | 29144 ft | 427 kts | 328° |
| 2026-04-22 16:09 | 24.44280 | 89.55952 | 29571 ft | 430 kts | 329° |
| 2026-04-22 16:09 | 24.47037 | 89.54647 | 29959 ft | 432 kts | 329° |
| 2026-04-22 16:09 | 24.49805 | 89.53338 | 30283 ft | 434 kts | 328° |
| 2026-04-22 16:09 | 24.52576 | 89.52016 | 30623 ft | 435 kts | 328° |
| 2026-04-22 16:10 | 24.55353 | 89.50680 | 30964 ft | 436 kts | 327° |
| 2026-04-22 16:10 | 24.58137 | 89.49329 | 31311 ft | 438 kts | 327° |
| 2026-04-22 16:10 | 24.60923 | 89.47971 | 31656 ft | 439 kts | 327° |
| 2026-04-22 16:10 | 24.63714 | 89.46606 | 32000 ft | 440 kts | 327° |
| 2026-04-22 16:11 | 24.66515 | 89.45236 | 32449 ft | 438 kts | 326° |
| 2026-04-22 16:11 | 24.69290 | 89.43882 | 32996 ft | 435 kts | 326° |
| 2026-04-22 16:11 | 24.72052 | 89.42534 | 33531 ft | 432 kts | 326° |
| 2026-04-22 16:11 | 24.74794 | 89.41192 | 33736 ft | 428 kts | 325° |
| 2026-04-22 16:12 | 24.77475 | 89.39889 | 33771 ft | 415 kts | 325° |
| 2026-04-22 16:12 | 24.80092 | 89.38617 | 33761 ft | 407 kts | 325° |
| 2026-04-22 16:12 | 24.85245 | 89.36082 | 33760 ft | 406 kts | 324° |
| 2026-04-22 16:13 | 24.90398 | 89.33534 | 33741 ft | 406 kts | 324° |
| 2026-04-22 16:13 | 24.95565 | 89.30990 | 33741 ft | 406 kts | 324° |
| 2026-04-22 16:14 | 25.00729 | 89.28452 | 33744 ft | 406 kts | 324° |
| 2026-04-22 16:14 | 25.05901 | 89.25907 | 33751 ft | 407 kts | 325° |
| 2026-04-22 16:15 | 25.11056 | 89.23369 | 33740 ft | 408 kts | 325° |
| 2026-04-22 16:15 | 25.16293 | 89.20787 | 33743 ft | 410 kts | 325° |
| 2026-04-22 16:16 | 25.21476 | 89.18232 | 33744 ft | 411 kts | 325° |
| 2026-04-22 16:16 | 25.26694 | 89.15657 | 33744 ft | 411 kts | 325° |
| 2026-04-22 16:17 | 25.31910 | 89.13078 | 33744 ft | 411 kts | 325° |
| 2026-04-22 16:17 | 25.37130 | 89.10492 | 33744 ft | 411 kts | 325° |
| 2026-04-22 16:18 | 25.42344 | 89.07907 | 33741 ft | 411 kts | 325° |
| 2026-04-22 16:18 | 25.47559 | 89.05319 | 33741 ft | 411 kts | 325° |
| 2026-04-22 16:19 | 25.52779 | 89.02727 | 33741 ft | 411 kts | 325° |
| 2026-04-22 16:19 | 25.57994 | 89.00136 | 33741 ft | 411 kts | 325° |
| 2026-04-22 16:20 | 25.63208 | 88.97542 | 33738 ft | 411 kts | 325° |
| 2026-04-22 16:20 | 25.68422 | 88.94946 | 33738 ft | 411 kts | 326° |
| 2026-04-22 16:21 | 25.73649 | 88.92341 | 33736 ft | 412 kts | 326° |
| 2026-04-22 16:21 | 25.78731 | 88.89498 | 33737 ft | 406 kts | 321° |
| 2026-04-22 16:22 | 25.86114 | 88.84915 | 33742 ft | 405 kts | 321° |
| 2026-04-22 16:23 | 25.93489 | 88.80271 | 33739 ft | 406 kts | 321° |
| 2026-04-22 16:23 | 25.98403 | 88.77179 | 33737 ft | 406 kts | 322° |
| 2026-04-22 16:24 | 26.05782 | 88.72540 | 33733 ft | 406 kts | 322° |
| 2026-04-22 16:25 | 26.10700 | 88.69445 | 33732 ft | 406 kts | 322° |
| 2026-04-22 16:25 | 26.18072 | 88.64800 | 33733 ft | 406 kts | 322° |
| 2026-04-22 16:26 | 26.22954 | 88.61719 | 33730 ft | 406 kts | 322° |
| 2026-04-22 16:26 | 26.27872 | 88.58610 | 33737 ft | 406 kts | 323° |
| 2026-04-22 16:27 | 26.32802 | 88.55491 | 33733 ft | 408 kts | 323° |
| 2026-04-22 16:27 | 26.37694 | 88.52395 | 33736 ft | 408 kts | 323° |
| 2026-04-22 16:28 | 26.42631 | 88.49270 | 33742 ft | 408 kts | 323° |
| 2026-04-22 16:28 | 26.47560 | 88.46145 | 33748 ft | 407 kts | 323° |
| 2026-04-22 16:29 | 26.52481 | 88.43022 | 33762 ft | 406 kts | 323° |
| 2026-04-22 16:29 | 26.57399 | 88.39897 | 33774 ft | 408 kts | 324° |
| 2026-04-22 16:30 | 26.62373 | 88.36727 | 33772 ft | 414 kts | 324° |
| 2026-04-22 16:30 | 26.67211 | 88.33292 | 33772 ft | 408 kts | 315° |
| 2026-04-22 16:31 | 26.70963 | 88.28679 | 33771 ft | 398 kts | 301° |
| 2026-04-22 16:31 | 26.73981 | 88.23496 | 33794 ft | 397 kts | 298° |
| 2026-04-22 16:32 | 26.76862 | 88.18211 | 33796 ft | 397 kts | 298° |
| 2026-04-22 16:32 | 26.79764 | 88.12943 | 33803 ft | 398 kts | 298° |
| 2026-04-22 16:33 | 26.82700 | 88.07686 | 33801 ft | 398 kts | 299° |
| 2026-04-22 16:33 | 26.85644 | 88.02443 | 33871 ft | 397 kts | 299° |
| 2026-04-22 16:34 | 26.88602 | 87.97161 | 33862 ft | 404 kts | 299° |
| 2026-04-22 16:34 | 26.91605 | 87.91787 | 33860 ft | 407 kts | 299° |
| 2026-04-22 16:35 | 26.94609 | 87.86411 | 33859 ft | 407 kts | 299° |
| 2026-04-22 16:35 | 26.97604 | 87.81042 | 33900 ft | 407 kts | 299° |
| 2026-04-22 16:36 | 27.00605 | 87.75657 | 33903 ft | 407 kts | 299° |
| 2026-04-22 16:36 | 27.03604 | 87.70274 | 33890 ft | 407 kts | 299° |
| 2026-04-22 16:37 | 27.06600 | 87.64883 | 33896 ft | 407 kts | 299° |
| 2026-04-22 16:37 | 27.09587 | 87.59487 | 33930 ft | 407 kts | 299° |
| 2026-04-22 16:38 | 27.12578 | 87.54089 | 33921 ft | 407 kts | 300° |
| 2026-04-22 16:38 | 27.15564 | 87.48695 | 33940 ft | 407 kts | 300° |
| 2026-04-22 16:39 | 27.18575 | 87.43242 | 33928 ft | 414 kts | 300° |
| 2026-04-22 16:39 | 27.21622 | 87.37723 | 33959 ft | 417 kts | 300° |
| 2026-04-22 16:40 | 27.24159 | 87.33127 | 33956 ft | 416 kts | 300° |
| 2026-04-22 16:41 | 27.28738 | 87.24812 | 33964 ft | 418 kts | 301° |
| 2026-04-22 16:41 | 27.31506 | 87.19090 | 33964 ft | 416 kts | 288° |
| 2026-04-22 16:42 | 27.32956 | 87.12786 | 34003 ft | 417 kts | 283° |
| 2026-04-22 16:42 | 27.34226 | 87.06433 | 34021 ft | 417 kts | 282° |
| 2026-04-22 16:43 | 27.35479 | 87.00070 | 34018 ft | 417 kts | 282° |
| 2026-04-22 16:43 | 27.36733 | 86.93690 | 34025 ft | 418 kts | 282° |
| 2026-04-22 16:44 | 27.37979 | 86.87325 | 34032 ft | 416 kts | 282° |
| 2026-04-22 16:44 | 27.39220 | 86.80968 | 34032 ft | 416 kts | 282° |
| 2026-04-22 16:45 | 27.40457 | 86.74612 | 34035 ft | 416 kts | 282° |
| 2026-04-22 16:45 | 27.41692 | 86.68254 | 34036 ft | 415 kts | 282° |
| 2026-04-22 16:46 | 27.42922 | 86.61904 | 34034 ft | 415 kts | 282° |
| 2026-04-22 16:46 | 27.44154 | 86.55530 | 33576 ft | 418 kts | 282° |
| 2026-04-22 16:46 | 27.44772 | 86.52326 | 33203 ft | 420 kts | 283° |
| 2026-04-22 16:47 | 27.45393 | 86.49103 | 32852 ft | 423 kts | 283° |
| 2026-04-22 16:47 | 27.46016 | 86.45862 | 32476 ft | 425 kts | 283° |
| 2026-04-22 16:47 | 27.46641 | 86.42608 | 32126 ft | 426 kts | 283° |
| 2026-04-22 16:47 | 27.47266 | 86.39348 | 31784 ft | 425 kts | 283° |
| 2026-04-22 16:48 | 27.47890 | 86.36093 | 31442 ft | 424 kts | 283° |
| 2026-04-22 16:48 | 27.48509 | 86.32855 | 31084 ft | 423 kts | 283° |
| 2026-04-22 16:48 | 27.48925 | 86.29573 | 30744 ft | 424 kts | 273° |
| 2026-04-22 16:48 | 27.48628 | 86.26276 | 30437 ft | 426 kts | 257° |
| 2026-04-22 16:49 | 27.47504 | 86.23194 | 30123 ft | 429 kts | 242° |
| 2026-04-22 16:49 | 27.45905 | 86.20349 | 29744 ft | 430 kts | 238° |
| 2026-04-22 16:49 | 27.44219 | 86.17567 | 29335 ft | 430 kts | 238° |
| 2026-04-22 16:49 | 27.42526 | 86.14793 | 28950 ft | 430 kts | 238° |
| 2026-04-22 16:50 | 27.40834 | 86.12003 | 28527 ft | 430 kts | 238° |
| 2026-04-22 16:50 | 27.39159 | 86.09232 | 28147 ft | 427 kts | 238° |
| 2026-04-22 16:50 | 27.37502 | 86.06484 | 27783 ft | 424 kts | 238° |
| 2026-04-22 16:50 | 27.35848 | 86.03737 | 27433 ft | 423 kts | 238° |
| 2026-04-22 16:51 | 27.34199 | 86.00998 | 27084 ft | 421 kts | 238° |
| 2026-04-22 16:51 | 27.32562 | 85.98279 | 26732 ft | 420 kts | 238° |
| 2026-04-22 16:51 | 27.30926 | 85.95562 | 26391 ft | 418 kts | 238° |
| 2026-04-22 16:51 | 27.29291 | 85.92850 | 26016 ft | 417 kts | 238° |
| 2026-04-22 16:52 | 27.27669 | 85.90159 | 25702 ft | 416 kts | 238° |
| 2026-04-22 16:52 | 27.26045 | 85.87467 | 25392 ft | 415 kts | 238° |
| 2026-04-22 16:52 | 27.24426 | 85.84786 | 25083 ft | 414 kts | 238° |
| 2026-04-22 16:52 | 27.22812 | 85.82114 | 24776 ft | 413 kts | 238° |
| 2026-04-22 16:53 | 27.21203 | 85.79451 | 24479 ft | 412 kts | 238° |
| 2026-04-22 16:53 | 27.19592 | 85.76787 | 24147 ft | 410 kts | 238° |
| 2026-04-22 16:53 | 27.17988 | 85.74136 | 23819 ft | 409 kts | 238° |
| 2026-04-22 16:53 | 27.16388 | 85.71493 | 23435 ft | 408 kts | 238° |
| 2026-04-22 16:54 | 27.14799 | 85.68851 | 23044 ft | 407 kts | 239° |
| 2026-04-22 16:54 | 27.13426 | 85.66139 | 22659 ft | 403 kts | 247° |
| 2026-04-22 16:54 | 27.12433 | 85.63229 | 22278 ft | 397 kts | 256° |
| 2026-04-22 16:54 | 27.11890 | 85.60219 | 21885 ft | 391 kts | 266° |
| 2026-04-22 16:55 | 27.11741 | 85.57147 | 21488 ft | 387 kts | 271° |
| 2026-04-22 16:55 | 27.11731 | 85.54178 | 21093 ft | 384 kts | 272° |
| 2026-04-22 16:55 | 27.11742 | 85.51184 | 20688 ft | 382 kts | 272° |
| 2026-04-22 16:55 | 27.11753 | 85.48204 | 20148 ft | 382 kts | 272° |
| 2026-04-22 16:56 | 27.11761 | 85.45222 | 19560 ft | 382 kts | 272° |
| 2026-04-22 16:56 | 27.11766 | 85.42240 | 18965 ft | 382 kts | 272° |
| 2026-04-22 16:56 | 27.11769 | 85.39259 | 18398 ft | 382 kts | 272° |
| 2026-04-22 16:56 | 27.11770 | 85.36286 | 17844 ft | 380 kts | 272° |
| 2026-04-22 16:57 | 27.11771 | 85.33331 | 17275 ft | 377 kts | 272° |
| 2026-04-22 16:57 | 27.11874 | 85.30419 | 16723 ft | 370 kts | 278° |
| 2026-04-22 16:57 | 27.12353 | 85.27633 | 16181 ft | 354 kts | 288° |
| 2026-04-22 16:57 | 27.13225 | 85.25125 | 15657 ft | 337 kts | 297° |
| 2026-04-22 16:58 | 27.13985 | 85.23638 | 15321 ft | 327 kts | 304° |
| 2026-04-22 16:58 | 27.15869 | 85.21076 | 14677 ft | 310 kts | 315° |
| 2026-04-22 16:58 | 27.17507 | 85.19561 | 14179 ft | 301 kts | 324° |
| 2026-04-22 16:58 | 27.19286 | 85.18384 | 13663 ft | 294 kts | 332° |
| 2026-04-22 16:59 | 27.21169 | 85.17540 | 13037 ft | 290 kts | 340° |
| 2026-04-22 16:59 | 27.23129 | 85.17029 | 12416 ft | 288 kts | 348° |
| 2026-04-22 16:59 | 27.25112 | 85.16854 | 11806 ft | 286 kts | 357° |
| 2026-04-22 16:59 | 27.27092 | 85.17011 | 11225 ft | 285 kts | 5° |
| 2026-04-22 17:00 | 27.29029 | 85.17498 | 10723 ft | 283 kts | 14° |
| 2026-04-22 17:00 | 27.32527 | 85.19036 | 10321 ft | 256 kts | 19° |
| 2026-04-22 17:00 | 27.34126 | 85.19785 | 10227 ft | 242 kts | 19° |
| 2026-04-22 17:01 | 27.35663 | 85.20496 | 10116 ft | 237 kts | 18° |
| 2026-04-22 17:01 | 27.37185 | 85.21192 | 9998 ft | 236 kts | 18° |
| 2026-04-22 17:01 | 27.38706 | 85.21883 | 9909 ft | 235 kts | 18° |
| 2026-04-22 17:01 | 27.40227 | 85.22571 | 9926 ft | 236 kts | 18° |
| 2026-04-22 17:02 | 27.41761 | 85.23264 | 9919 ft | 238 kts | 18° |
| 2026-04-22 17:02 | 27.43299 | 85.23963 | 9922 ft | 238 kts | 18° |
| 2026-04-22 17:02 | 27.44831 | 85.24656 | 9866 ft | 236 kts | 18° |
| 2026-04-22 17:02 | 27.46308 | 85.25323 | 9756 ft | 220 kts | 18° |
| 2026-04-22 17:03 | 27.47691 | 85.25945 | 9620 ft | 212 kts | 18° |
| 2026-04-22 17:03 | 27.49059 | 85.26560 | 9485 ft | 211 kts | 19° |
| 2026-04-22 17:03 | 27.50415 | 85.27173 | 9258 ft | 205 kts | 18° |
| 2026-04-22 17:03 | 27.51702 | 85.27757 | 9040 ft | 195 kts | 18° |
| 2026-04-22 17:04 | 27.52920 | 85.28316 | 8719 ft | 182 kts | 18° |
| 2026-04-22 17:04 | 27.54040 | 85.28822 | 8533 ft | 167 kts | 17° |
| 2026-04-22 17:04 | 27.55132 | 85.29268 | 8066 ft | 169 kts | 16° |
| 2026-04-22 17:04 | 27.56223 | 85.29738 | 7643 ft | 171 kts | 21° |
| 2026-04-22 17:05 | 27.57303 | 85.30288 | 7274 ft | 169 kts | 22° |
| 2026-04-22 17:05 | 27.58405 | 85.30757 | 6866 ft | 170 kts | 18° |
| 2026-04-22 17:05 | 27.59502 | 85.31254 | 6485 ft | 170 kts | 22° |
| 2026-04-22 17:05 | 27.60564 | 85.31785 | 6167 ft | 163 kts | 22° |
| 2026-04-22 17:06 | 27.61594 | 85.32257 | 5899 ft | 157 kts | 16° |
| 2026-04-22 17:06 | 27.62617 | 85.32711 | 5602 ft | 158 kts | 24° |
| 2026-04-22 17:06 | 27.63639 | 85.33180 | 5367 ft | 158 kts | 21° |
| 2026-04-22 17:06 | 27.64661 | 85.33633 | 5127 ft | 157 kts | 22° |
| 2026-04-22 17:07 | 27.65675 | 85.34092 | 4917 ft | 156 kts | 22° |
| 2026-04-22 17:07 | 27.66676 | 85.34551 | 4685 ft | 154 kts | 23° |
| 2026-04-22 17:07 | 27.67135 | 85.34762 | 4606 ft | 153 kts | 24° |
| 2026-04-22 17:07 | 27.68115 | 85.35206 | 4462 ft | 152 kts | 24° |
| 2026-04-22 17:08 | 27.69076 | 85.35654 | 4396 ft | 136 kts | 20° |
| 2026-04-22 17:08 | 27.69692 | 85.35930 | 4399 ft | 52 kts | 22° |
| 2026-04-22 17:08 | 27.69894 | 85.35992 | 4399 ft | 18 kts | 334° |
| 2026-04-22 17:08 | 27.69919 | 85.35943 | 4401 ft | 5 kts | 278° |
| 2026-04-22 17:09 | 27.69907 | 85.35913 | 4401 ft | 4 kts | 229° |
| 2026-04-22 17:09 | 27.69883 | 85.35899 | 4401 ft | 4 kts | 205° |
| 2026-04-22 17:09 | 27.69863 | 85.35888 | 4401 ft | 5 kts | 205° |
| 2026-04-22 17:09 | 27.69809 | 85.35861 | 4401 ft | 7 kts | 201° |
| 2026-04-22 17:10 | 27.69758 | 85.35839 | 4401 ft | 8 kts | 201° |
| 2026-04-22 17:10 | 27.69733 | 85.35809 | 4401 ft | 4 kts | 262° |
| 2026-04-22 17:10 | 27.69744 | 85.35768 | 4401 ft | 7 kts | 291° |
| 2026-04-22 17:10 | 27.69754 | 85.35738 | 4401 ft | 1 kts | 291° |